sensor_id;sensor_type;location;lat;lon;timestamp;pressure;altitude;pressure_sealevel;temperature;humidity
9893;BME280;4985;49.092;8.542;2024-02-26T00:01:56;97407.97;;;15.65;49.47
9893;BME280;4985;49.092;8.542;2024-02-26T00:04:22;97406.38;;;15.64;49.46
9893;BME280;4985;49.092;8.542;2024-02-26T00:06:47;97400.25;;;15.63;49.34
9893;BME280;4985;49.092;8.542;2024-02-26T00:09:15;97405.56;;;15.63;49.41
9893;BME280;4985;49.092;8.542;2024-02-26T00:11:40;97408.22;;;15.63;49.63
9893;BME280;4985;49.092;8.542;2024-02-26T00:14:06;97412.47;;;15.64;49.26
9893;BME280;4985;49.092;8.542;2024-02-26T00:16:31;97406.38;;;15.64;49.49
9893;BME280;4985;49.092;8.542;2024-02-26T00:18:56;97410.88;;;15.63;49.86
9893;BME280;4985;49.092;8.542;2024-02-26T00:21:22;97422.28;;;15.64;49.54
9893;BME280;4985;49.092;8.542;2024-02-26T00:23:49;97418.81;;;15.63;49.44
9893;BME280;4985;49.092;8.542;2024-02-26T00:26:15;97426.78;;;15.63;49.38
9893;BME280;4985;49.092;8.542;2024-02-26T00:28:41;97428.63;;;15.63;49.16
9893;BME280;4985;49.092;8.542;2024-02-26T00:31:06;97437.38;;;15.63;49.19
9893;BME280;4985;49.092;8.542;2024-02-26T00:33:31;97439.00;;;15.64;49.20
9893;BME280;4985;49.092;8.542;2024-02-26T00:35:57;97433.69;;;15.64;49.15
9893;BME280;4985;49.092;8.542;2024-02-26T00:38:22;97444.28;;;15.64;49.09
9893;BME280;4985;49.092;8.542;2024-02-26T00:40:47;97449.59;;;15.64;49.13
9893;BME280;4985;49.092;8.542;2024-02-26T00:43:13;97449.59;;;15.64;49.26
9893;BME280;4985;49.092;8.542;2024-02-26T00:45:38;97458.59;;;15.63;49.41
9893;BME280;4985;49.092;8.542;2024-02-26T00:48:03;97454.09;;;15.64;49.39
9893;BME280;4985;49.092;8.542;2024-02-26T00:50:33;97462.84;;;15.64;49.16
9893;BME280;4985;49.092;8.542;2024-02-26T00:52:58;97458.34;;;15.65;49.16
9893;BME280;4985;49.092;8.542;2024-02-26T00:55:24;97451.19;;;15.65;49.42
9893;BME280;4985;49.092;8.542;2024-02-26T00:57:49;97444.28;;;15.64;49.21
9893;BME280;4985;49.092;8.542;2024-02-26T01:00:15;97463.91;;;15.63;49.20
9893;BME280;4985;49.092;8.542;2024-02-26T01:02:40;97464.72;;;15.64;49.31
9893;BME280;4985;49.092;8.542;2024-02-26T01:05:07;97454.09;;;15.64;49.28
9893;BME280;4985;49.092;8.542;2024-02-26T01:07:34;97454.09;;;15.64;49.47
9893;BME280;4985;49.092;8.542;2024-02-26T01:10:01;97453.31;;;15.63;49.44
9893;BME280;4985;49.092;8.542;2024-02-26T01:12:27;97448.00;;;15.63;49.12
9893;BME280;4985;49.092;8.542;2024-02-26T01:14:52;97448.78;;;15.64;49.33
9893;BME280;4985;49.092;8.542;2024-02-26T01:17:18;97444.53;;;15.63;49.39
9893;BME280;4985;49.092;8.542;2024-02-26T01:19:43;97442.44;;;15.65;49.48
9893;BME280;4985;49.092;8.542;2024-02-26T01:22:09;97438.19;;;15.64;49.23
9893;BME280;4985;49.092;8.542;2024-02-26T01:24:34;97440.03;;;15.63;49.53
9893;BME280;4985;49.092;8.542;2024-02-26T01:27:00;97448.00;;;15.63;49.21
9893;BME280;4985;49.092;8.542;2024-02-26T01:29:25;97432.09;;;15.63;49.56
9893;BME280;4985;49.092;8.542;2024-02-26T01:31:50;97439.00;;;15.64;49.51
9893;BME280;4985;49.092;8.542;2024-02-26T01:34:16;97435.53;;;15.64;49.36
9893;BME280;4985;49.092;8.542;2024-02-26T01:36:43;97433.69;;;15.64;49.30
9893;BME280;4985;49.092;8.542;2024-02-26T01:39:08;97432.09;;;15.63;49.36
9893;BME280;4985;49.092;8.542;2024-02-26T01:41:40;97429.44;;;15.63;49.53
9893;BME280;4985;49.092;8.542;2024-02-26T01:44:06;97456.16;;;15.62;49.52
9893;BME280;4985;49.092;8.542;2024-02-26T01:46:33;97462.28;;;15.62;49.34
9893;BME280;4985;49.092;8.542;2024-02-26T01:48:59;97466.78;;;15.62;49.10
9893;BME280;4985;49.092;8.542;2024-02-26T01:51:25;97466.78;;;15.62;48.96
9893;BME280;4985;49.092;8.542;2024-02-26T01:53:51;97464.13;;;15.62;48.90
9893;BME280;4985;49.092;8.542;2024-02-26T01:56:17;97472.88;;;15.62;49.09
9893;BME280;4985;49.092;8.542;2024-02-26T01:58:43;97479.00;;;15.63;49.10
9893;BME280;4985;49.092;8.542;2024-02-26T02:01:09;97468.41;;;15.63;49.25
9893;BME280;4985;49.092;8.542;2024-02-26T02:03:35;97468.63;;;15.61;49.30
9893;BME280;4985;49.092;8.542;2024-02-26T02:06:02;97484.31;;;15.63;49.42
9893;BME280;4985;49.092;8.542;2024-02-26T02:08:27;97470.22;;;15.62;49.53
9893;BME280;4985;49.092;8.542;2024-02-26T02:10:53;97474.72;;;15.62;49.40
9893;BME280;4985;49.092;8.542;2024-02-26T02:13:18;97469.22;;;15.63;49.45
9893;BME280;4985;49.092;8.542;2024-02-26T02:15:43;97473.72;;;15.63;49.16
9893;BME280;4985;49.092;8.542;2024-02-26T02:18:09;97486.13;;;15.62;49.36
9893;BME280;4985;49.092;8.542;2024-02-26T02:20:35;97475.53;;;15.62;49.25
9893;BME280;4985;49.092;8.542;2024-02-26T02:23:01;97479.00;;;15.63;49.24
9893;BME280;4985;49.092;8.542;2024-02-26T02:25:27;97468.41;;;15.63;49.58
9893;BME280;4985;49.092;8.542;2024-02-26T02:27:54;97474.72;;;15.62;49.62
9893;BME280;4985;49.092;8.542;2024-02-26T02:30:21;97476.38;;;15.63;49.59
9893;BME280;4985;49.092;8.542;2024-02-26T02:32:49;97481.88;;;15.61;49.47
9893;BME280;4985;49.092;8.542;2024-02-26T02:35:14;97481.88;;;15.61;49.26
9893;BME280;4985;49.092;8.542;2024-02-26T02:37:39;97477.38;;;15.62;49.22
9893;BME280;4985;49.092;8.542;2024-02-26T02:40:06;97477.38;;;15.62;49.38
9893;BME280;4985;49.092;8.542;2024-02-26T02:42:31;97475.78;;;15.61;49.42
9893;BME280;4985;49.092;8.542;2024-02-26T02:44:57;97471.28;;;15.61;49.50
9893;BME280;4985;49.092;8.542;2024-02-26T02:47:22;97469.41;;;15.62;49.40
9893;BME280;4985;49.092;8.542;2024-02-26T02:49:47;97473.94;;;15.61;49.57
9893;BME280;4985;49.092;8.542;2024-02-26T02:52:13;97479.22;;;15.61;49.53
9893;BME280;4985;49.092;8.542;2024-02-26T02:54:38;97470.22;;;15.62;49.60
9893;BME280;4985;49.092;8.542;2024-02-26T02:57:05;97474.72;;;15.62;49.30
9893;BME280;4985;49.092;8.542;2024-02-26T02:59:31;97476.56;;;15.61;49.27
9893;BME280;4985;49.092;8.542;2024-02-26T03:01:56;97472.06;;;15.62;49.44
9893;BME280;4985;49.092;8.542;2024-02-26T03:04:21;97465.97;;;15.61;49.37
9893;BME280;4985;49.092;8.542;2024-02-26T03:06:47;97471.28;;;15.61;49.28
9893;BME280;4985;49.092;8.542;2024-02-26T03:09:12;97472.06;;;15.62;49.25
9893;BME280;4985;49.092;8.542;2024-02-26T03:11:38;97476.56;;;15.61;49.33
9893;BME280;4985;49.092;8.542;2024-02-26T03:14:04;97476.56;;;15.61;49.36
9893;BME280;4985;49.092;8.542;2024-02-26T03:16:30;97465.97;;;15.61;49.57
9893;BME280;4985;49.092;8.542;2024-02-26T03:18:55;97472.06;;;15.62;49.55
9893;BME280;4985;49.092;8.542;2024-02-26T03:21:20;97471.28;;;15.61;49.14
9893;BME280;4985;49.092;8.542;2024-02-26T03:23:46;97463.31;;;15.61;49.18
9893;BME280;4985;49.092;8.542;2024-02-26T03:26:11;97458.00;;;15.61;49.55
9893;BME280;4985;49.092;8.542;2024-02-26T03:28:39;97461.47;;;15.62;49.59
9893;BME280;4985;49.092;8.542;2024-02-26T03:31:05;97450.06;;;15.61;49.63
9893;BME280;4985;49.092;8.542;2024-02-26T03:33:30;97449.25;;;15.61;49.38
9893;BME280;4985;49.092;8.542;2024-02-26T03:35:55;97449.25;;;15.61;49.62
9893;BME280;4985;49.092;8.542;2024-02-26T03:38:21;97447.41;;;15.61;49.38
9893;BME280;4985;49.092;8.542;2024-02-26T03:40:46;97450.06;;;15.61;49.47
9893;BME280;4985;49.092;8.542;2024-02-26T03:43:11;97443.16;;;15.60;49.34
9893;BME280;4985;49.092;8.542;2024-02-26T03:45:38;97443.16;;;15.60;49.60
9893;BME280;4985;49.092;8.542;2024-02-26T03:48:03;97445.78;;;15.60;49.52
9893;BME280;4985;49.092;8.542;2024-02-26T03:50:29;97448.44;;;15.60;49.58
9893;BME280;4985;49.092;8.542;2024-02-26T03:52:54;97443.94;;;15.61;49.54
9893;BME280;4985;49.092;8.542;2024-02-26T03:55:19;97440.50;;;15.60;49.59
9893;BME280;4985;49.092;8.542;2024-02-26T03:57:50;97437.84;;;15.60;49.61
9893;BME280;4985;49.092;8.542;2024-02-26T04:00:16;97431.72;;;15.60;49.51
9893;BME280;4985;49.092;8.542;2024-02-26T04:02:41;97430.69;;;15.61;49.60
9893;BME280;4985;49.092;8.542;2024-02-26T04:05:09;97418.47;;;15.60;49.30
9893;BME280;4985;49.092;8.542;2024-02-26T04:07:35;97416.63;;;15.60;49.62
9893;BME280;4985;49.092;8.542;2024-02-26T04:10:01;97404.38;;;15.59;49.23
9893;BME280;4985;49.092;8.542;2024-02-26T04:12:28;97400.72;;;15.60;49.20
9893;BME280;4985;49.092;8.542;2024-02-26T04:14:54;97400.72;;;15.60;49.41
9893;BME280;4985;49.092;8.542;2024-02-26T04:17:19;97396.44;;;15.59;49.31
9893;BME280;4985;49.092;8.542;2024-02-26T04:19:45;97405.22;;;15.60;49.26
9893;BME280;4985;49.092;8.542;2024-02-26T04:22:10;97390.31;;;15.59;49.65
9893;BME280;4985;49.092;8.542;2024-02-26T04:24:36;97391.13;;;15.59;49.45
9893;BME280;4985;49.092;8.542;2024-02-26T04:27:01;97399.06;;;15.59;49.36
9893;BME280;4985;49.092;8.542;2024-02-26T04:29:27;97401.72;;;15.59;49.22
9893;BME280;4985;49.092;8.542;2024-02-26T04:31:52;97406.00;;;15.60;49.35
9893;BME280;4985;49.092;8.542;2024-02-26T04:34:17;97405.22;;;15.60;49.41
9893;BME280;4985;49.092;8.542;2024-02-26T04:36:43;97403.59;;;15.59;49.57
9893;BME280;4985;49.092;8.542;2024-02-26T04:39:09;97408.09;;;15.58;49.28
9893;BME280;4985;49.092;8.542;2024-02-26T04:41:35;97413.38;;;15.58;49.55
9893;BME280;4985;49.092;8.542;2024-02-26T04:44:00;97411.53;;;15.59;49.66
9893;BME280;4985;49.092;8.542;2024-02-26T04:46:25;97414.19;;;15.59;49.52
9893;BME280;4985;49.092;8.542;2024-02-26T04:48:51;97408.88;;;15.59;49.42
9893;BME280;4985;49.092;8.542;2024-02-26T04:51:16;97415.00;;;15.59;49.29
9893;BME280;4985;49.092;8.542;2024-02-26T04:53:41;97418.69;;;15.58;49.44
9893;BME280;4985;49.092;8.542;2024-02-26T04:56:07;97418.69;;;15.58;49.57
9893;BME280;4985;49.092;8.542;2024-02-26T04:58:32;97415.22;;;15.58;49.56
9893;BME280;4985;49.092;8.542;2024-02-26T05:00:57;97422.38;;;15.57;49.44
9893;BME280;4985;49.092;8.542;2024-02-26T05:03:22;97423.19;;;15.58;49.56
9893;BME280;4985;49.092;8.542;2024-02-26T05:05:48;97426.66;;;15.58;49.26
9893;BME280;4985;49.092;8.542;2024-02-26T05:08:13;97426.66;;;15.58;49.60
9893;BME280;4985;49.092;8.542;2024-02-26T05:10:39;97435.41;;;15.59;49.37
9893;BME280;4985;49.092;8.542;2024-02-26T05:13:09;97423.19;;;15.58;49.63
9893;BME280;4985;49.092;8.542;2024-02-26T05:15:35;97433.00;;;15.57;49.49
9893;BME280;4985;49.092;8.542;2024-02-26T05:18:00;97438.06;;;15.59;49.47
9893;BME280;4985;49.092;8.542;2024-02-26T05:20:26;97446.00;;;15.59;49.53
9893;BME280;4985;49.092;8.542;2024-02-26T05:22:51;97447.06;;;15.58;49.29
9893;BME280;4985;49.092;8.542;2024-02-26T05:25:17;97453.16;;;15.58;49.56
9893;BME280;4985;49.092;8.542;2024-02-26T05:27:43;97459.50;;;15.57;49.23
9893;BME280;4985;49.092;8.542;2024-02-26T05:30:10;97461.13;;;15.58;49.57
9893;BME280;4985;49.092;8.542;2024-02-26T05:32:35;97464.81;;;15.57;49.50
9893;BME280;4985;49.092;8.542;2024-02-26T05:35:01;97461.13;;;15.58;49.55
9893;BME280;4985;49.092;8.542;2024-02-26T05:37:28;97464.00;;;15.57;49.49
9893;BME280;4985;49.092;8.542;2024-02-26T05:39:54;97475.44;;;15.57;49.58
9893;BME280;4985;49.092;8.542;2024-02-26T05:42:19;97478.06;;;15.57;49.41
9893;BME280;4985;49.092;8.542;2024-02-26T05:44:44;97486.03;;;15.57;49.36
9893;BME280;4985;49.092;8.542;2024-02-26T05:47:10;97482.56;;;15.57;49.71
9893;BME280;4985;49.092;8.542;2024-02-26T05:49:35;97486.03;;;15.57;49.39
9893;BME280;4985;49.092;8.542;2024-02-26T05:52:00;97485.22;;;15.57;49.59
9893;BME280;4985;49.092;8.542;2024-02-26T05:54:26;97486.03;;;15.57;49.39
9893;BME280;4985;49.092;8.542;2024-02-26T05:56:51;97479.94;;;15.57;49.59
9893;BME280;4985;49.092;8.542;2024-02-26T05:59:17;97487.06;;;15.56;49.68
9893;BME280;4985;49.092;8.542;2024-02-26T06:01:47;97491.34;;;15.57;49.64
9893;BME280;4985;49.092;8.542;2024-02-26T06:04:13;97497.44;;;15.58;49.36
9893;BME280;4985;49.092;8.542;2024-02-26T06:06:38;97498.50;;;15.57;49.35
9893;BME280;4985;49.092;8.542;2024-02-26T06:09:03;97507.25;;;15.57;49.42
9893;BME280;4985;49.092;8.542;2024-02-26T06:11:30;97504.59;;;15.57;49.36
9893;BME280;4985;49.092;8.542;2024-02-26T06:13:56;97500.34;;;15.56;49.64
9893;BME280;4985;49.092;8.542;2024-02-26T06:16:21;97484.44;;;15.56;49.46
9893;BME280;4985;49.092;8.542;2024-02-26T06:18:46;97482.00;;;15.55;49.44
9893;BME280;4985;49.092;8.542;2024-02-26T06:21:12;97494.22;;;15.56;49.64
9893;BME280;4985;49.092;8.542;2024-02-26T06:23:40;97504.03;;;15.55;49.57
9893;BME280;4985;49.092;8.542;2024-02-26T06:26:06;97507.72;;;15.54;49.65
9893;BME280;4985;49.092;8.542;2024-02-26T06:28:31;97508.53;;;15.55;49.33
9893;BME280;4985;49.092;8.542;2024-02-26T06:30:59;97517.28;;;15.55;49.75
9893;BME280;4985;49.092;8.542;2024-02-26T06:33:24;97516.72;;;15.53;49.42
9893;BME280;4985;49.092;8.542;2024-02-26T06:35:49;97522.84;;;15.54;49.33
9893;BME280;4985;49.092;8.542;2024-02-26T06:38:15;97531.84;;;15.53;49.51
9893;BME280;4985;49.092;8.542;2024-02-26T06:40:40;97528.94;;;15.54;49.44
9893;BME280;4985;49.092;8.542;2024-02-26T06:43:06;97527.34;;;15.53;49.56
9893;BME280;4985;49.092;8.542;2024-02-26T06:45:31;97526.28;;;15.54;49.35
9893;BME280;4985;49.092;8.542;2024-02-26T06:47:56;97528.94;;;15.54;49.50
9893;BME280;4985;49.092;8.542;2024-02-26T06:50:22;97537.94;;;15.53;49.57
9893;BME280;4985;49.092;8.542;2024-02-26T06:52:47;97533.44;;;15.54;49.59
9893;BME280;4985;49.092;8.542;2024-02-26T06:55:13;97544.06;;;15.54;49.69
9893;BME280;4985;49.092;8.542;2024-02-26T06:57:38;97544.84;;;15.54;49.34
9893;BME280;4985;49.092;8.542;2024-02-26T07:00:04;97552.81;;;15.54;49.55
9893;BME280;4985;49.092;8.542;2024-02-26T07:02:30;97553.84;;;15.53;49.52
9893;BME280;4985;49.092;8.542;2024-02-26T07:04:55;97549.34;;;15.54;49.70
9893;BME280;4985;49.092;8.542;2024-02-26T07:07:23;97553.84;;;15.53;49.73
9893;BME280;4985;49.092;8.542;2024-02-26T07:09:48;97558.13;;;15.54;49.49
9893;BME280;4985;49.092;8.542;2024-02-26T07:12:14;97557.31;;;15.54;49.62
9893;BME280;4985;49.092;8.542;2024-02-26T07:14:41;97555.47;;;15.54;49.34
9893;BME280;4985;49.092;8.542;2024-02-26T07:17:06;97566.06;;;15.54;49.41
9893;BME280;4985;49.092;8.542;2024-02-26T07:19:31;97561.56;;;15.55;49.44
9893;BME280;4985;49.092;8.542;2024-02-26T07:21:56;97559.16;;;15.53;49.37
9893;BME280;4985;49.092;8.542;2024-02-26T07:24:22;97559.97;;;15.54;49.47
9893;BME280;4985;49.092;8.542;2024-02-26T07:26:47;97569.75;;;15.53;49.33
9893;BME280;4985;49.092;8.542;2024-02-26T07:29:12;97565.25;;;15.54;49.46
9893;BME280;4985;49.092;8.542;2024-02-26T07:31:38;97565.25;;;15.54;49.61
9893;BME280;4985;49.092;8.542;2024-02-26T07:34:03;97572.19;;;15.55;49.61
9893;BME280;4985;49.092;8.542;2024-02-26T07:36:28;97570.56;;;15.54;49.36
9893;BME280;4985;49.092;8.542;2024-02-26T07:38:54;97571.38;;;15.54;49.68
9893;BME280;4985;49.092;8.542;2024-02-26T07:41:20;97568.72;;;15.54;49.29
9893;BME280;4985;49.092;8.542;2024-02-26T07:43:45;97571.38;;;15.54;49.49
9893;BME280;4985;49.092;8.542;2024-02-26T07:46:14;97572.19;;;15.55;49.29
9893;BME280;4985;49.092;8.542;2024-02-26T07:48:39;97571.38;;;15.54;49.33
9893;BME280;4985;49.092;8.542;2024-02-26T07:51:04;97576.69;;;15.54;49.49
9893;BME280;4985;49.092;8.542;2024-02-26T07:53:30;97576.69;;;15.54;49.45
9893;BME280;4985;49.092;8.542;2024-02-26T07:55:56;97579.31;;;15.54;49.47
9893;BME280;4985;49.092;8.542;2024-02-26T07:58:23;97574.03;;;15.54;49.78
9893;BME280;4985;49.092;8.542;2024-02-26T08:00:48;97570.56;;;15.54;49.53
9893;BME280;4985;49.092;8.542;2024-02-26T08:03:14;97577.47;;;15.55;49.48
9893;BME280;4985;49.092;8.542;2024-02-26T08:05:41;97571.38;;;15.54;49.71
9893;BME280;4985;49.092;8.542;2024-02-26T08:08:08;97570.34;;;15.55;49.40
9893;BME280;4985;49.092;8.542;2024-02-26T08:10:33;97568.47;;;15.56;49.76
9893;BME280;4985;49.092;8.542;2024-02-26T08:12:58;97562.38;;;15.55;49.85
9893;BME280;4985;49.092;8.542;2024-02-26T08:15:31;97562.38;;;15.55;49.30
9893;BME280;4985;49.092;8.542;2024-02-26T08:17:56;97555.47;;;15.54;49.40
9893;BME280;4985;49.092;8.542;2024-02-26T08:20:21;97560.53;;;15.56;49.57
9893;BME280;4985;49.092;8.542;2024-02-26T08:22:47;97562.38;;;15.55;49.48
9893;BME280;4985;49.092;8.542;2024-02-26T08:25:12;97562.38;;;15.55;49.33
9893;BME280;4985;49.092;8.542;2024-02-26T08:27:37;97566.06;;;15.54;49.29
9893;BME280;4985;49.092;8.542;2024-02-26T08:30:03;97558.13;;;15.54;49.39
9893;BME280;4985;49.092;8.542;2024-02-26T08:32:29;97572.19;;;15.55;49.17
9893;BME280;4985;49.092;8.542;2024-02-26T08:34:54;97566.06;;;15.54;49.46
9893;BME280;4985;49.092;8.542;2024-02-26T08:37:19;97579.31;;;15.54;49.56
9893;BME280;4985;49.092;8.542;2024-02-26T08:39:45;97586.47;;;15.54;49.55
9893;BME280;4985;49.092;8.542;2024-02-26T08:42:11;97582.78;;;15.55;49.75
9893;BME280;4985;49.092;8.542;2024-02-26T08:44:36;97583.59;;;15.55;49.71
9893;BME280;4985;49.092;8.542;2024-02-26T08:47:01;97595.00;;;15.56;49.49
9893;BME280;4985;49.092;8.542;2024-02-26T08:49:27;97584.41;;;15.56;49.34
9893;BME280;4985;49.092;8.542;2024-02-26T08:51:53;97587.84;;;15.56;49.36
9893;BME280;4985;49.092;8.542;2024-02-26T08:54:18;97590.50;;;15.56;49.22
9893;BME280;4985;49.092;8.542;2024-02-26T08:56:43;97594.75;;;15.57;49.66
9893;BME280;4985;49.092;8.542;2024-02-26T08:59:09;97599.03;;;15.58;49.19
9893;BME280;4985;49.092;8.542;2024-02-26T09:01:34;97597.97;;;15.59;49.39
9893;BME280;4985;49.092;8.542;2024-02-26T09:03:59;97591.06;;;15.58;49.60
9893;BME280;4985;49.092;8.542;2024-02-26T09:06:25;97599.81;;;15.59;49.65
9893;BME280;4985;49.092;8.542;2024-02-26T09:08:50;97601.66;;;15.58;49.46
9893;BME280;4985;49.092;8.542;2024-02-26T09:11:15;97608.81;;;15.58;49.67
9893;BME280;4985;49.092;8.542;2024-02-26T09:13:41;97609.88;;;15.57;49.58
9893;BME280;4985;49.092;8.542;2024-02-26T09:16:07;97606.19;;;15.58;49.64
9893;BME280;4985;49.092;8.542;2024-02-26T09:18:32;97602.72;;;15.57;49.31
9893;BME280;4985;49.092;8.542;2024-02-26T09:20:58;97593.72;;;15.58;49.73
9893;BME280;4985;49.092;8.542;2024-02-26T09:23:23;97605.94;;;15.59;49.68
9893;BME280;4985;49.092;8.542;2024-02-26T09:25:48;97607.78;;;15.59;49.60
9893;BME280;4985;49.092;8.542;2024-02-26T09:28:14;97603.28;;;15.59;49.84
9893;BME280;4985;49.092;8.542;2024-02-26T09:30:43;97604.91;;;15.60;49.81
9893;BME280;4985;49.092;8.542;2024-02-26T09:33:08;97611.84;;;15.61;49.53
9893;BME280;4985;49.092;8.542;2024-02-26T09:35:33;97606.53;;;15.61;49.59
9893;BME280;4985;49.092;8.542;2024-02-26T09:37:59;97618.97;;;15.61;49.76
9893;BME280;4985;49.092;8.542;2024-02-26T09:40:24;97616.34;;;15.61;49.36
9893;BME280;4985;49.092;8.542;2024-02-26T09:42:52;97603.88;;;15.61;49.39
9893;BME280;4985;49.092;8.542;2024-02-26T09:45:19;97599.38;;;15.62;49.49
9893;BME280;4985;49.092;8.542;2024-02-26T09:47:48;97603.88;;;15.61;49.83
9893;BME280;4985;49.092;8.542;2024-02-26T09:50:16;97610.78;;;15.62;49.47
9893;BME280;4985;49.092;8.542;2024-02-26T09:52:43;97605.47;;;15.62;49.76
9893;BME280;4985;49.092;8.542;2024-02-26T09:55:09;97598.38;;;15.63;49.70
9893;BME280;4985;49.092;8.542;2024-02-26T09:57:37;97601.81;;;15.63;49.75
9893;BME280;4985;49.092;8.542;2024-02-26T10:00:04;97613.22;;;15.64;49.77
9893;BME280;4985;49.092;8.542;2024-02-26T10:02:33;97619.34;;;15.64;49.66
9893;BME280;4985;49.092;8.542;2024-02-26T10:05:02;97619.34;;;15.64;49.77
9893;BME280;4985;49.092;8.542;2024-02-26T10:07:30;97625.44;;;15.65;49.56
9893;BME280;4985;49.092;8.542;2024-02-26T10:09:56;97632.59;;;15.64;49.38
9893;BME280;4985;49.092;8.542;2024-02-26T10:12:21;97636.06;;;15.65;49.41
9893;BME280;4985;49.092;8.542;2024-02-26T10:14:47;97636.06;;;15.65;49.61
9893;BME280;4985;49.092;8.542;2024-02-26T10:17:12;97641.13;;;15.66;49.82
9893;BME280;4985;49.092;8.542;2024-02-26T10:19:38;97642.16;;;15.65;49.74
9893;BME280;4985;49.092;8.542;2024-02-26T10:22:03;97633.16;;;15.66;49.78
9893;BME280;4985;49.092;8.542;2024-02-26T10:24:30;97630.50;;;15.66;49.57
9893;BME280;4985;49.092;8.542;2024-02-26T10:26:56;97627.84;;;15.66;49.48
9893;BME280;4985;49.092;8.542;2024-02-26T10:29:24;97624.97;;;15.68;49.30
9893;BME280;4985;49.092;8.542;2024-02-26T10:31:51;97628.44;;;15.68;49.68
9893;BME280;4985;49.092;8.542;2024-02-26T10:34:16;97634.53;;;15.69;49.39
9893;BME280;4985;49.092;8.542;2024-02-26T10:36:42;97639.84;;;15.69;49.77
9893;BME280;4985;49.092;8.542;2024-02-26T10:39:09;97643.28;;;15.69;49.42
9893;BME280;4985;49.092;8.542;2024-02-26T10:41:34;97650.44;;;15.69;49.72
9893;BME280;4985;49.092;8.542;2024-02-26T10:44:00;97645.94;;;15.69;49.54
9893;BME280;4985;49.092;8.542;2024-02-26T10:46:26;97645.94;;;15.69;49.79
9893;BME280;4985;49.092;8.542;2024-02-26T10:48:52;97655.50;;;15.70;49.56
9893;BME280;4985;49.092;8.542;2024-02-26T10:51:22;97659.78;;;15.71;49.48
9893;BME280;4985;49.092;8.542;2024-02-26T10:53:51;97659.78;;;15.71;49.33
9893;BME280;4985;49.092;8.542;2024-02-26T10:56:24;97668.53;;;15.72;49.55
9893;BME280;4985;49.092;8.542;2024-02-26T10:58:52;97661.38;;;15.72;49.39
9893;BME280;4985;49.092;8.542;2024-02-26T11:01:18;97663.00;;;15.73;49.34
9893;BME280;4985;49.092;8.542;2024-02-26T11:03:47;97654.22;;;15.73;49.57
9893;BME280;4985;49.092;8.542;2024-02-26T11:06:14;97654.03;;;15.75;49.48
9893;BME280;4985;49.092;8.542;2024-02-26T11:08:40;97661.97;;;15.75;49.56
9893;BME280;4985;49.092;8.542;2024-02-26T11:11:06;97654.81;;;15.75;49.40
9893;BME280;4985;49.092;8.542;2024-02-26T11:13:33;97652.97;;;15.76;49.52
9893;BME280;4985;49.092;8.542;2024-02-26T11:16:00;97657.25;;;15.77;49.27
9893;BME280;4985;49.092;8.542;2024-02-26T11:18:27;97659.91;;;15.77;49.34
9893;BME280;4985;49.092;8.542;2024-02-26T11:20:54;97662.53;;;15.77;49.58
9893;BME280;4985;49.092;8.542;2024-02-26T11:23:22;97657.25;;;15.77;49.49
9893;BME280;4985;49.092;8.542;2024-02-26T11:25:51;97652.50;;;15.79;49.50
9893;BME280;4985;49.092;8.542;2024-02-26T11:28:19;97660.47;;;15.79;49.35
9893;BME280;4985;49.092;8.542;2024-02-26T11:30:47;97652.50;;;15.79;49.45
9893;BME280;4985;49.092;8.542;2024-02-26T11:33:14;97657.00;;;15.78;49.48
9893;BME280;4985;49.092;8.542;2024-02-26T11:35:40;97653.31;;;15.79;49.50
9893;BME280;4985;49.092;8.542;2024-02-26T11:38:06;97651.44;;;15.80;49.51
9893;BME280;4985;49.092;8.542;2024-02-26T11:40:33;97650.41;;;15.81;49.42
9893;BME280;4985;49.092;8.542;2024-02-26T11:43:03;97649.59;;;15.80;49.18
9893;BME280;4985;49.092;8.542;2024-02-26T11:48:20;97654.09;;;15.80;49.47
9893;BME280;4985;49.092;8.542;2024-02-26T11:50:50;97651.44;;;15.80;49.27
9893;BME280;4985;49.092;8.542;2024-02-26T11:58:41;97654.91;;;15.80;49.08
9893;BME280;4985;49.092;8.542;2024-02-26T12:01:48;97652.03;;;15.82;49.43
9893;BME280;4985;49.092;8.542;2024-02-26T12:04:21;97649.59;;;15.80;49.49
9893;BME280;4985;49.092;8.542;2024-02-26T12:06:50;97649.59;;;15.80;49.39
9893;BME280;4985;49.092;8.542;2024-02-26T12:09:36;97659.97;;;15.82;49.22
9893;BME280;4985;49.092;8.542;2024-02-26T12:12:03;97661.03;;;15.81;49.13
9893;BME280;4985;49.092;8.542;2024-02-26T12:14:29;97665.28;;;15.82;49.54
9893;BME280;4985;49.092;8.542;2024-02-26T12:16:55;97662.38;;;15.83;49.29
9893;BME280;4985;49.092;8.542;2024-02-26T12:19:21;97671.16;;;15.84;49.53
9893;BME280;4985;49.092;8.542;2024-02-26T12:21:51;97671.16;;;15.84;49.24
9893;BME280;4985;49.092;8.542;2024-02-26T12:24:18;97668.25;;;15.85;49.44
9893;BME280;4985;49.092;8.542;2024-02-26T12:26:43;97674.41;;;15.86;49.01
9893;BME280;4985;49.092;8.542;2024-02-26T12:29:09;97674.16;;;15.87;49.33
9893;BME280;4985;49.092;8.542;2024-02-26T12:31:36;97674.97;;;15.88;49.21
9893;BME280;4985;49.092;8.542;2024-02-26T12:34:03;97672.31;;;15.88;49.08
9893;BME280;4985;49.092;8.542;2024-02-26T12:36:29;97674.97;;;15.88;49.02
9893;BME280;4985;49.092;8.542;2024-02-26T12:38:55;97678.44;;;15.88;49.20
9893;BME280;4985;49.092;8.542;2024-02-26T12:41:21;97679.22;;;15.89;49.03
9893;BME280;4985;49.092;8.542;2024-02-26T12:43:46;97680.84;;;15.90;48.98
9893;BME280;4985;49.092;8.542;2024-02-26T12:46:12;97680.84;;;15.90;48.85
9893;BME280;4985;49.092;8.542;2024-02-26T12:48:38;97677.94;;;15.91;49.03
9893;BME280;4985;49.092;8.542;2024-02-26T12:51:04;97684.06;;;15.92;48.89
9893;BME280;4985;49.092;8.542;2024-02-26T12:53:31;97684.88;;;15.92;48.59
9893;BME280;4985;49.092;8.542;2024-02-26T12:55:57;97684.06;;;15.92;48.62
9893;BME280;4985;49.092;8.542;2024-02-26T12:58:23;97696.28;;;15.93;48.63
9893;BME280;4985;49.092;8.542;2024-02-26T13:00:53;97685.66;;;15.93;48.76
9893;BME280;4985;49.092;8.542;2024-02-26T13:03:20;97691.78;;;15.93;48.58
9893;BME280;4985;49.092;8.542;2024-02-26T13:05:46;97692.81;;;15.92;48.42
9893;BME280;4985;49.092;8.542;2024-02-26T13:08:19;97697.88;;;15.94;48.76
9893;BME280;4985;49.092;8.542;2024-02-26T13:10:46;97696.03;;;15.94;48.37
9893;BME280;4985;49.092;8.542;2024-02-26T13:13:11;97694.19;;;15.95;48.51
9893;BME280;4985;49.092;8.542;2024-02-26T13:15:39;97697.88;;;15.94;48.51
9893;BME280;4985;49.092;8.542;2024-02-26T13:18:12;97707.22;;;15.96;48.54
9893;BME280;4985;49.092;8.542;2024-02-26T13:20:38;97706.41;;;15.96;48.56
9893;BME280;4985;49.092;8.542;2024-02-26T13:23:12;97707.22;;;15.96;48.71
9893;BME280;4985;49.092;8.542;2024-02-26T13:25:38;97709.66;;;15.98;48.76